Pagina principale
METAR-TAF:

METAR-TAF

Aeroporti :

Aeroporto di Gibilterra

Gibilterra, Gibilterra

latitudine: 36-09N, longitudine: 005-21W, altezza: 5 m

Osservazione

Il bollettino è stato emesso 1 ora e 7 minuti fa, alle 21:50 UTC
Vento 10 kt da sud-ovest
Temperature 22°C
Umidità 69%
Pressione 1016 hPa
Visibilità 10 km o più

METAR: LXGB 152150Z AUTO 23010KT 9999 // SCT180/// 22/16 Q1016

Ora: 00:57 (22:57 UTC)

Previsione

Il bollettino è stato emesso 6 ore e 38 minuti fa, alle 16:19 UTC
Previsione valida dal 15 alle 18 UTC al 15 alle 22 UTC
Vento 6 kt da est
Visibilità 10 km o più
Poco nuvoloso ad un'altezza di 2000 ft
Probabilità 40% :
Temporaneamente
dal 15 alle 19 UTC al 15 alle 22 UTC
Poco nuvoloso ad un'altezza di 1000 ft
Nubi sparse ad un'altezza di 1800 ft

TAF: LXGB 151619Z 1518/1522 09006KT 9999 FEW020 PROB40 TEMPO 1519/1522 FEW010 SCT018

Osservazioni e previsioni meteorologiche di più di 4000 aeroporti (messaggi METAR e TAF).

Le stazioni disponibili sono rappresentate dai dischi gialli e rossi sulla carta.

Puntare il mouse per vedere il nome della stazione.

Clicca sopra per visualizzare le osservazioni e previsioni meteorologiche.

Per cambiare la mappa : fare clic sui pulsanti verdi con una croce nera per ingrandire, il pulsante verde con un trattino per diminuire, o sulla freccia verde per le mappe adiacenti.


METAR-TAF: